Terminal Aerodrome Forecast
Issued by NWS Hastings, NE

Home | Current Version | Previous Version | Text Only | Print | Product List | Glossary On
Versions: 1 2 3 4 5 6 7 8 9 10 11 12 13 14 15 16 17 18 19 20 21 22 23 24 25 26 27 28 29 30 31 32 33 34 35 36 37 38 39 40
000
FTUS43 KGID 042323
TAFGRI
TAF
KGRI 042323Z 0500/0524 14010KT P6SM VCTS SCT040CB
      TEMPO 0500/0503 VRB15G25KT 3SM -SHRA BKN040
     FM050400 13006KT P6SM BKN035
     FM051000 16006KT 6SM BR OVC015
     FM051500 12006KT P6SM OVC015=

USA.gov is the U.S. government's official web portal to all federal, state and local government web resources and services.